createdAt,value
2017-10-25T00:00:23.315Z,62.67
2017-10-25T00:02:50.227Z,68.37
2017-10-25T00:05:17.177Z,65.03
2017-10-25T00:07:43.344Z,56.00
2017-10-25T00:10:10.292Z,56.97
2017-10-25T00:12:37.175Z,69.40
2017-10-25T00:15:03.364Z,65.10
2017-10-25T00:17:30.279Z,49.80
2017-10-25T00:19:56.432Z,62.63
2017-10-25T00:22:23.319Z,57.53
2017-10-25T00:24:49.757Z,57.40
2017-10-25T00:27:15.911Z,55.20
2017-10-25T00:29:42.059Z,58.43
2017-10-25T00:32:09.010Z,59.70
2017-10-25T00:34:35.198Z,65.20
2017-10-25T00:37:01.396Z,57.30
2017-10-25T00:39:27.559Z,63.33
2017-10-25T00:41:53.712Z,54.77
2017-10-25T00:44:20.645Z,59.63
2017-10-25T00:46:47.580Z,57.60
2017-10-25T00:49:13.755Z,59.30
2017-10-25T00:51:39.932Z,55.97
2017-10-25T00:54:06.138Z,44.33
2017-10-25T00:56:32.331Z,55.03
2017-10-25T00:58:58.540Z,54.57
2017-10-25T01:01:25.455Z,53.67
2017-10-25T01:03:51.640Z,57.67
2017-10-25T01:06:17.847Z,56.67
2017-10-25T01:08:44.024Z,48.20
2017-10-25T01:11:10.263Z,42.63
2017-10-25T01:13:36.455Z,50.90
2017-10-25T01:16:02.631Z,54.27
2017-10-25T01:18:29.663Z,56.60
2017-10-25T01:20:56.115Z,47.77
2017-10-25T01:23:22.490Z,57.97
2017-10-25T01:25:48.809Z,50.63
2017-10-25T01:28:15.169Z,58.47
2017-10-25T01:30:41.485Z,53.63
2017-10-25T01:33:07.839Z,59.67
2017-10-25T01:35:34.160Z,53.30
2017-10-25T01:38:00.512Z,47.37
2017-10-25T01:40:26.947Z,56.90
2017-10-25T01:42:53.279Z,53.63
2017-10-25T01:45:19.604Z,44.97
2017-10-25T01:47:45.960Z,54.40
2017-10-25T01:50:13.029Z,52.97
2017-10-25T01:52:39.317Z,51.53
2017-10-25T01:55:06.467Z,60.67
2017-10-25T01:57:32.836Z,62.27
2017-10-25T01:59:59.148Z,56.27
2017-10-25T02:02:26.832Z,47.63
2017-10-25T02:04:53.145Z,48.10
2017-10-25T02:07:19.465Z,65.17
2017-10-25T02:09:46.540Z,65.60
2017-10-25T02:12:12.868Z,55.30
2017-10-25T02:14:39.180Z,64.10
2017-10-25T02:17:06.245Z,44.40
2017-10-25T02:19:32.555Z,61.10
2017-10-25T02:21:59.630Z,68.87
2017-10-25T02:24:25.936Z,60.27
2017-10-25T02:26:53.028Z,67.70
2017-10-25T02:29:19.226Z,63.17
2017-10-25T02:31:45.393Z,60.97
2017-10-25T02:34:11.608Z,55.50
2017-10-25T02:36:37.779Z,66.53
2017-10-25T02:39:04.693Z,68.43
2017-10-25T02:41:30.870Z,57.03
2017-10-25T02:43:57.067Z,62.07
2017-10-25T02:46:23.244Z,68.20
2017-10-25T02:48:49.410Z,71.80
2017-10-25T02:51:15.585Z,73.23
2017-10-25T02:53:41.787Z,74.13
2017-10-25T02:56:08.174Z,66.83
2017-10-25T02:58:34.349Z,57.93
2017-10-25T03:01:01.280Z,77.50
2017-10-25T03:03:28.208Z,66.07
2017-10-25T03:05:54.375Z,63.73
2017-10-25T03:08:20.669Z,80.83
2017-10-25T03:10:46.868Z,63.83
2017-10-25T03:13:13.035Z,56.17
2017-10-25T03:15:39.971Z,62.03
2017-10-25T03:18:06.167Z,53.37
2017-10-25T03:20:32.572Z,54.13
2017-10-25T03:22:58.771Z,59.50
2017-10-25T03:25:25.681Z,50.37
2017-10-25T03:27:51.900Z,41.70
2017-10-25T03:30:18.067Z,58.03
2017-10-25T03:32:44.981Z,54.77
2017-10-25T03:35:11.297Z,52.83
2017-10-25T03:37:37.459Z,49.30
2017-10-25T03:40:03.636Z,57.97
2017-10-25T03:42:29.810Z,50.53
2017-10-25T03:44:55.977Z,59.00
2017-10-25T03:47:22.274Z,54.10
2017-10-25T03:49:49.190Z,49.97
2017-10-25T03:52:15.365Z,55.43
2017-10-25T03:54:41.573Z,51.90
2017-10-25T03:57:08.479Z,53.07
2017-10-25T03:59:34.651Z,46.27
2017-10-25T04:02:01.586Z,43.30
2017-10-25T04:04:28.499Z,42.20
2017-10-25T04:06:54.653Z,31.63
2017-10-25T04:09:20.828Z,42.53
2017-10-25T04:11:46.993Z,34.40
2017-10-25T04:14:13.156Z,41.47
2017-10-25T04:16:40.244Z,24.30
2017-10-25T04:19:06.409Z,22.97
2017-10-25T04:21:33.327Z,24.27
2017-10-25T04:23:59.503Z,24.27
2017-10-25T04:26:26.415Z,18.00
2017-10-25T04:28:52.571Z,19.40
2017-10-25T04:31:19.530Z,27.50
2017-10-25T04:33:45.706Z,20.87
2017-10-25T04:36:12.206Z,16.77
2017-10-25T04:38:38.420Z,18.97
2017-10-25T04:41:04.577Z,17.07
2017-10-25T04:43:30.752Z,20.20
2017-10-25T04:45:57.788Z,10.90
2017-10-25T04:48:24.702Z,14.23
2017-10-25T04:50:50.890Z,22.90
2017-10-25T04:53:17.085Z,17.47
2017-10-25T04:55:44.001Z,19.30
2017-10-25T04:58:10.197Z,16.67
2017-10-25T05:00:36.362Z,18.83
2017-10-25T05:03:02.531Z,23.80
2017-10-25T05:05:28.736Z,21.63
2017-10-25T05:07:55.646Z,19.80
2017-10-25T05:10:22.569Z,18.97
2017-10-25T05:12:48.773Z,18.90
2017-10-25T05:15:14.949Z,21.53
2017-10-25T05:17:41.113Z,24.10
2017-10-25T05:20:08.030Z,22.50
2017-10-25T05:22:34.216Z,19.43
2017-10-25T05:25:00.401Z,22.07
2017-10-25T05:27:27.357Z,21.17
2017-10-25T05:29:54.308Z,18.87
2017-10-25T05:32:21.238Z,21.97
2017-10-25T05:34:48.188Z,28.47
2017-10-25T05:37:15.599Z,24.33
2017-10-25T05:39:41.939Z,16.83
2017-10-25T05:42:08.124Z,34.60
2017-10-25T05:44:34.337Z,32.93
2017-10-25T05:47:01.272Z,29.57
2017-10-25T05:49:27.479Z,32.63
2017-10-25T05:51:53.691Z,31.70
2017-10-25T05:54:19.871Z,28.73
2017-10-25T05:56:46.316Z,25.70
2017-10-25T05:59:12.492Z,23.33
2017-10-25T06:01:38.678Z,17.90
2017-10-25T06:04:04.882Z,26.17
2017-10-25T06:06:31.799Z,24.00
2017-10-25T06:08:57.952Z,19.00
2017-10-25T06:11:25.044Z,23.60
2017-10-25T06:13:51.205Z,27.47
2017-10-25T06:16:18.120Z,17.07
2017-10-25T06:18:44.292Z,19.40
2017-10-25T06:21:11.202Z,24.10
2017-10-25T06:23:37.493Z,13.13
2017-10-25T06:26:03.669Z,18.67
2017-10-25T06:28:29.848Z,16.57
2017-10-25T06:30:56.056Z,20.93
2017-10-25T06:33:22.307Z,18.27
2017-10-25T06:35:48.481Z,16.90
2017-10-25T06:38:14.730Z,14.03
2017-10-25T06:40:41.664Z,14.17
2017-10-25T06:43:08.601Z,13.80
2017-10-25T06:45:34.840Z,8.80
2017-10-25T06:48:01.791Z,16.17
2017-10-25T06:50:28.726Z,18.47
2017-10-25T06:52:55.968Z,20.70
2017-10-25T06:55:22.148Z,19.43
2017-10-25T06:57:48.312Z,16.23
2017-10-25T07:00:14.520Z,17.80
2017-10-25T07:02:40.678Z,16.20
2017-10-25T07:05:07.584Z,25.20
2017-10-25T07:07:33.764Z,17.40
2017-10-25T07:10:00.672Z,22.90
2017-10-25T07:12:26.845Z,19.10
2017-10-25T07:14:53.063Z,19.87
2017-10-25T07:17:19.991Z,20.50
2017-10-25T07:19:46.152Z,20.83
2017-10-25T07:22:12.431Z,19.33
2017-10-25T07:24:38.594Z,16.03
2017-10-25T07:27:04.781Z,16.30
2017-10-25T07:29:30.983Z,20.07
2017-10-25T07:31:57.172Z,16.60
2017-10-25T07:34:24.086Z,17.47
2017-10-25T07:36:50.497Z,23.37
2017-10-25T07:39:16.700Z,13.57
2017-10-25T07:41:43.193Z,19.77
2017-10-25T07:44:10.160Z,17.00
2017-10-25T07:46:36.324Z,17.80
2017-10-25T07:49:02.508Z,14.33
2017-10-25T07:51:29.431Z,21.10
2017-10-25T07:53:56.701Z,14.10
2017-10-25T07:56:22.896Z,23.60
2017-10-25T07:58:49.080Z,18.77
2017-10-25T08:10:37.377Z,21.23
2017-10-25T08:13:03.825Z,21.93
2017-10-25T08:15:29.994Z,43.17
2017-10-25T08:17:56.190Z,12.30
2017-10-25T08:20:22.530Z,25.60
2017-10-25T08:22:48.742Z,19.87
2017-10-25T08:25:14.927Z,26.97
2017-10-25T08:27:41.864Z,21.63
2017-10-25T08:30:08.805Z,24.57
2017-10-25T08:32:35.827Z,18.67
2017-10-25T08:35:02.080Z,19.00
2017-10-25T08:37:28.999Z,13.40
2017-10-25T08:39:55.248Z,11.63
2017-10-25T08:42:22.224Z,17.30
2017-10-25T08:44:48.421Z,19.40
2017-10-25T08:47:15.350Z,13.10
2017-10-25T08:49:43.025Z,15.33
2017-10-25T08:52:09.696Z,24.53
2017-10-25T08:54:35.901Z,13.03
2017-10-25T08:57:02.840Z,11.17
2017-10-25T08:59:29.487Z,12.53
2017-10-25T09:01:55.708Z,8.50
2017-10-25T09:04:22.680Z,20.83
2017-10-25T09:06:49.392Z,9.43
2017-10-25T09:09:16.363Z,8.93
2017-10-25T09:11:42.570Z,10.73
2017-10-25T09:14:09.656Z,20.73
2017-10-25T09:16:35.844Z,11.70
2017-10-25T09:19:02.760Z,9.60
2017-10-25T09:21:29.039Z,13.20
2017-10-25T09:23:55.215Z,13.30
2017-10-25T09:26:21.710Z,13.17
2017-10-25T09:28:47.885Z,6.93
2017-10-25T09:31:14.062Z,11.93
2017-10-25T09:33:40.623Z,7.33
2017-10-25T09:36:06.789Z,5.33
2017-10-25T09:38:33.005Z,5.77
2017-10-25T09:40:59.190Z,5.70
2017-10-25T09:43:25.377Z,7.30
2017-10-25T09:45:52.293Z,6.80
2017-10-25T09:48:18.492Z,6.80
2017-10-25T09:50:44.666Z,7.50
2017-10-25T09:53:10.827Z,4.20
2017-10-25T09:55:37.037Z,10.70
2017-10-25T09:58:03.947Z,3.60
2017-10-25T10:00:30.112Z,6.67
2017-10-25T10:02:57.305Z,5.87
2017-10-25T10:05:23.482Z,10.20
2017-10-25T10:07:50.389Z,6.47
2017-10-25T10:10:16.885Z,4.23
2017-10-25T10:12:43.056Z,5.57
2017-10-25T10:15:09.244Z,8.93
2017-10-25T10:17:35.476Z,8.53
2017-10-25T10:20:01.704Z,4.50
2017-10-25T10:22:27.895Z,7.63
2017-10-25T10:24:54.845Z,7.13
2017-10-25T10:27:21.773Z,8.60
2017-10-25T10:29:48.048Z,5.20
2017-10-25T10:32:14.294Z,9.37
2017-10-25T10:34:40.468Z,8.20
2017-10-25T10:37:07.392Z,8.47
2017-10-25T10:39:34.489Z,9.83
2017-10-25T10:42:00.681Z,11.20
2017-10-25T10:44:27.788Z,8.97
2017-10-25T10:46:54.027Z,24.00
2017-10-25T10:49:20.226Z,10.13
2017-10-25T10:51:46.381Z,28.43
2017-10-25T10:54:12.981Z,11.80
2017-10-25T10:56:39.158Z,6.87
2017-10-25T10:59:05.335Z,10.83
2017-10-25T11:01:31.565Z,3.63
2017-10-25T11:03:57.757Z,15.37
2017-10-25T11:06:24.703Z,6.07
2017-10-25T11:08:51.696Z,4.90
2017-10-25T11:11:17.903Z,10.60
2017-10-25T11:13:44.089Z,11.30
2017-10-25T11:16:10.568Z,8.93
2017-10-25T11:18:36.752Z,12.10
2017-10-25T11:21:02.948Z,14.17
2017-10-25T11:23:29.152Z,13.00
2017-10-25T11:25:55.314Z,10.63
2017-10-25T11:28:21.540Z,17.40
2017-10-25T11:30:47.784Z,12.53
2017-10-25T11:33:14.000Z,8.07
2017-10-25T11:35:40.201Z,10.17
2017-10-25T11:38:06.434Z,16.33
2017-10-25T11:40:32.638Z,8.83
2017-10-25T11:42:58.831Z,11.40
2017-10-25T11:45:25.050Z,14.70
2017-10-25T11:47:51.222Z,14.20
2017-10-25T11:50:17.465Z,12.30
2017-10-25T11:52:43.641Z,14.13
2017-10-25T11:55:09.820Z,11.67
2017-10-25T11:57:36.114Z,12.37
2017-10-25T12:00:03.048Z,10.23
2017-10-25T12:02:29.985Z,19.73
2017-10-25T12:04:56.204Z,19.40
2017-10-25T12:07:22.408Z,14.20
2017-10-25T12:09:49.658Z,16.63
2017-10-25T12:12:16.062Z,8.77
2017-10-25T12:14:42.229Z,19.57
2017-10-25T12:17:08.401Z,21.83
2017-10-25T12:19:35.364Z,13.70
2017-10-25T12:22:01.636Z,7.60
2017-10-25T12:24:27.832Z,11.53
2017-10-25T12:26:54.029Z,12.00
2017-10-25T12:29:20.939Z,23.00
2017-10-25T12:31:47.126Z,11.77
2017-10-25T12:34:13.356Z,37.93
2017-10-25T12:36:39.518Z,34.87
2017-10-25T12:39:05.686Z,37.57
2017-10-25T12:41:31.908Z,14.17
2017-10-25T12:43:58.836Z,27.10
2017-10-25T12:46:25.785Z,19.87
2017-10-25T12:48:52.743Z,17.97
2017-10-25T12:51:19.665Z,17.10
2017-10-25T12:53:46.588Z,16.83
2017-10-25T12:56:12.803Z,35.70
2017-10-25T12:58:39.016Z,27.27
2017-10-25T13:01:05.199Z,58.47
2017-10-25T13:03:32.133Z,42.80
2017-10-25T13:05:58.315Z,10.10
2017-10-25T13:08:24.490Z,18.93
2017-10-25T13:11:11.859Z,38.43
2017-10-25T13:13:52.091Z,13.07
2017-10-25T13:16:37.986Z,32.30
2017-10-25T13:19:04.246Z,25.60
2017-10-25T13:21:30.408Z,17.63
2017-10-25T13:23:56.568Z,12.67
2017-10-25T13:26:22.766Z,19.60
2017-10-25T13:28:48.954Z,21.03
2017-10-25T13:31:15.141Z,17.53
2017-10-25T13:33:42.305Z,16.47
2017-10-25T13:36:08.472Z,16.60
2017-10-25T13:38:35.378Z,10.70
2017-10-25T13:41:01.677Z,13.00
2017-10-25T13:43:28.589Z,6.93
2017-10-25T13:45:54.775Z,9.20
2017-10-25T13:48:21.218Z,19.50
2017-10-25T13:50:47.399Z,19.10
2017-10-25T13:53:13.582Z,11.57
2017-10-25T13:55:39.833Z,10.00
2017-10-25T13:58:06.010Z,15.37
2017-10-25T14:00:32.249Z,10.77
2017-10-25T14:02:58.792Z,5.20
2017-10-25T14:05:24.988Z,11.60
2017-10-25T14:07:51.893Z,14.90
2017-10-25T14:10:18.106Z,12.23
2017-10-25T14:12:44.292Z,15.43
2017-10-25T14:15:11.192Z,14.30
2017-10-25T14:17:37.473Z,10.70
2017-10-25T14:20:03.674Z,5.87
2017-10-25T14:22:30.591Z,13.90
2017-10-25T14:24:56.779Z,5.33
2017-10-25T14:27:41.424Z,21.77
2017-10-25T14:30:08.397Z,5.83
2017-10-25T14:32:34.575Z,8.90
2017-10-25T14:35:00.769Z,6.43
2017-10-25T14:37:26.966Z,3.90
2017-10-25T14:39:53.146Z,10.10
2017-10-25T14:42:19.318Z,7.70
2017-10-25T14:44:45.512Z,4.80
2017-10-25T14:47:12.740Z,7.40
2017-10-25T14:49:39.161Z,20.20
2017-10-25T14:52:05.365Z,14.43
2017-10-25T14:54:31.966Z,16.40
2017-10-25T14:56:59.125Z,5.97
2017-10-25T14:59:25.408Z,18.13
2017-10-25T15:01:51.598Z,3.10
2017-10-25T15:04:17.768Z,10.60
2017-10-25T15:06:43.960Z,6.87
2017-10-25T15:09:10.150Z,3.53
2017-10-25T15:11:37.074Z,6.93
2017-10-25T15:14:03.661Z,3.73
2017-10-25T15:16:29.833Z,7.57
2017-10-25T15:18:56.015Z,9.43
2017-10-25T15:21:22.550Z,5.27
2017-10-25T15:23:48.720Z,8.63
2017-10-25T15:26:14.903Z,8.83
2017-10-25T15:28:41.096Z,4.53
2017-10-25T15:31:08.051Z,16.40
2017-10-25T15:33:34.971Z,5.47
2017-10-25T15:36:01.165Z,8.87
2017-10-25T15:38:27.333Z,13.83
2017-10-25T15:40:53.516Z,16.83
2017-10-25T15:43:19.926Z,15.47
2017-10-25T15:45:46.110Z,8.10
2017-10-25T15:48:12.307Z,5.40
2017-10-25T15:50:38.549Z,8.47
2017-10-25T15:53:04.704Z,7.27
2017-10-25T15:55:30.893Z,15.83
2017-10-25T15:57:57.080Z,7.30
2017-10-25T16:00:24.006Z,16.37
2017-10-25T16:02:50.922Z,12.53
2017-10-25T16:05:17.156Z,7.07
2017-10-25T16:07:43.327Z,24.10
2017-10-25T16:10:09.496Z,27.57
2017-10-25T16:12:35.799Z,7.50
2017-10-25T16:15:01.980Z,10.87
2017-10-25T16:17:28.449Z,21.07
2017-10-25T16:19:54.808Z,6.23
2017-10-25T16:22:20.981Z,6.90
2017-10-25T16:24:47.913Z,6.83
2017-10-25T16:27:14.101Z,18.33
2017-10-25T16:29:40.310Z,25.57
2017-10-25T16:32:06.500Z,10.20
2017-10-25T16:34:32.690Z,7.40
2017-10-25T16:36:58.864Z,43.83
2017-10-25T16:39:25.805Z,8.13
2017-10-25T16:41:52.721Z,9.13
2017-10-25T16:44:18.903Z,7.73
2017-10-25T16:46:45.116Z,72.13
2017-10-25T16:49:12.040Z,86.20
2017-10-25T16:51:38.257Z,7.07
2017-10-25T16:54:04.492Z,16.70
2017-10-25T16:56:30.678Z,16.40
2017-10-25T16:58:56.863Z,9.87
2017-10-25T17:01:23.786Z,8.43
2017-10-25T17:03:49.996Z,5.33
2017-10-25T17:06:16.929Z,4.73
2017-10-25T17:08:43.121Z,6.63
2017-10-25T17:11:09.469Z,7.17
2017-10-25T17:13:35.653Z,19.33
2017-10-25T17:16:01.883Z,12.10
2017-10-25T17:18:28.842Z,12.13
2017-10-25T17:20:55.756Z,121.43
2017-10-25T17:23:21.964Z,23.93
2017-10-25T17:25:48.137Z,16.57
2017-10-25T17:28:15.045Z,13.60
2017-10-25T17:30:41.279Z,35.17
2017-10-25T17:33:07.480Z,6.50
2017-10-25T17:35:33.666Z,11.57
2017-10-25T17:38:00.593Z,11.73
2017-10-25T17:40:26.767Z,22.23
2017-10-25T17:42:52.935Z,8.93
2017-10-25T17:45:19.174Z,43.43
2017-10-25T17:47:45.353Z,7.53
2017-10-25T17:50:11.559Z,14.33
2017-10-25T17:52:38.103Z,15.77
2017-10-25T17:55:04.296Z,15.70
2017-10-25T17:57:31.270Z,10.37
2017-10-25T17:59:57.454Z,15.30
2017-10-25T18:02:23.624Z,11.70
2017-10-25T18:04:49.839Z,8.20
2017-10-25T18:07:16.035Z,6.83
2017-10-25T18:09:42.202Z,8.87
2017-10-25T18:12:08.403Z,14.20
2017-10-25T18:14:35.325Z,8.20
2017-10-25T18:17:01.816Z,8.60
2017-10-25T18:19:27.987Z,16.43
2017-10-25T18:21:54.158Z,13.57
2017-10-25T18:24:20.369Z,9.43
2017-10-25T18:26:47.748Z,9.70
2017-10-25T18:29:14.777Z,8.00
2017-10-25T18:31:41.768Z,11.13
2017-10-25T18:34:07.957Z,13.57
2017-10-25T18:36:34.508Z,9.43
2017-10-25T18:39:00.713Z,9.93
2017-10-25T18:41:27.664Z,13.20
2017-10-25T18:43:53.949Z,8.90
2017-10-25T18:46:20.196Z,13.70
2017-10-25T18:48:46.403Z,10.20
2017-10-25T18:51:12.641Z,13.90
2017-10-25T18:53:38.857Z,7.47
2017-10-25T18:56:05.107Z,11.93
2017-10-25T18:58:32.168Z,15.03
2017-10-25T19:00:59.113Z,15.13
2017-10-25T19:03:26.039Z,9.30
2017-10-25T19:05:52.518Z,16.33
2017-10-25T19:08:18.708Z,9.27
2017-10-25T19:10:44.951Z,10.70
2017-10-25T19:13:11.520Z,19.47
2017-10-25T19:15:37.705Z,9.90
2017-10-25T19:18:04.647Z,22.93
2017-10-25T19:20:31.616Z,23.13
2017-10-25T19:22:57.794Z,15.07
2017-10-25T19:25:24.009Z,34.33
2017-10-25T19:27:50.242Z,14.63
2017-10-25T19:30:16.454Z,11.87
2017-10-25T19:32:42.706Z,15.03
2017-10-25T19:35:08.909Z,8.93
2017-10-25T19:37:35.105Z,8.27
2017-10-25T19:40:01.409Z,13.53
2017-10-25T19:42:28.342Z,12.80
2017-10-25T19:44:54.558Z,14.27
2017-10-25T19:47:20.932Z,10.53
2017-10-25T19:49:47.868Z,24.33
2017-10-25T19:52:14.832Z,12.93
2017-10-25T19:54:41.442Z,28.53
2017-10-25T19:57:08.378Z,8.50
2017-10-25T19:59:34.579Z,11.27
2017-10-25T20:02:00.822Z,10.50
2017-10-25T20:04:27.005Z,13.77
2017-10-25T20:06:53.257Z,14.90
2017-10-25T20:09:19.457Z,11.20
2017-10-25T20:11:45.693Z,17.93
2017-10-25T20:14:12.133Z,10.73
2017-10-25T20:16:38.327Z,12.13
2017-10-25T20:19:04.855Z,18.93
2017-10-25T20:21:32.014Z,13.63
2017-10-25T20:23:58.248Z,21.20
2017-10-25T20:26:25.022Z,14.30
2017-10-25T20:28:51.343Z,21.67
2017-10-25T20:31:17.559Z,10.70
2017-10-25T20:33:44.034Z,6.00
2017-10-25T20:36:10.995Z,15.87
2017-10-25T20:38:37.239Z,9.80
2017-10-25T20:41:04.425Z,16.03
2017-10-25T20:43:30.601Z,11.30
2017-10-25T20:45:57.114Z,9.30
2017-10-25T20:48:23.398Z,10.03
2017-10-25T20:50:49.585Z,16.60
2017-10-25T20:53:15.822Z,9.90
2017-10-25T20:55:42.028Z,12.50
2017-10-25T20:58:08.253Z,17.90
2017-10-25T21:00:35.311Z,10.47
2017-10-25T21:03:01.484Z,11.10
2017-10-25T21:05:27.678Z,16.87
2017-10-25T21:07:53.897Z,9.10
2017-10-25T21:10:21.295Z,9.23
2017-10-25T21:12:48.361Z,8.17
2017-10-25T21:15:14.558Z,18.37
2017-10-25T21:17:41.935Z,12.77
2017-10-25T21:20:08.168Z,9.57
2017-10-25T21:22:34.378Z,22.93
2017-10-25T21:25:00.573Z,13.50
2017-10-25T21:27:26.785Z,12.00
2017-10-25T21:29:52.988Z,35.07
2017-10-25T21:32:19.170Z,18.90
2017-10-25T21:34:46.303Z,12.00
2017-10-25T21:37:12.636Z,16.17
2017-10-25T21:39:38.850Z,17.67
2017-10-25T21:42:05.787Z,20.70
2017-10-25T21:44:32.004Z,22.37
2017-10-25T21:46:58.333Z,27.67
2017-10-25T21:49:25.155Z,14.00
2017-10-25T21:51:52.713Z,16.90
2017-10-25T21:54:18.905Z,17.73
2017-10-25T21:56:46.069Z,17.07
2017-10-25T21:59:12.893Z,7.03
2017-10-25T22:01:39.209Z,21.73
2017-10-25T22:04:06.141Z,19.10
2017-10-25T22:06:32.580Z,12.03
2017-10-25T22:08:58.838Z,12.87
2017-10-25T22:11:25.762Z,12.77
2017-10-25T22:13:51.967Z,15.20
2017-10-25T22:16:18.352Z,10.97
2017-10-25T22:18:44.582Z,6.70
2017-10-25T22:21:10.935Z,19.13
2017-10-25T22:23:37.112Z,18.17
2017-10-25T22:26:03.341Z,15.03
2017-10-25T22:28:30.717Z,15.23
2017-10-25T22:30:58.154Z,16.70
2017-10-25T22:33:24.402Z,18.03
2017-10-25T22:35:50.698Z,11.90
2017-10-25T22:38:17.167Z,17.67
2017-10-25T22:40:43.358Z,15.67
2017-10-25T22:43:09.551Z,9.97
2017-10-25T22:45:35.745Z,14.70
2017-10-25T22:48:01.935Z,19.27
2017-10-25T22:50:28.107Z,16.13
2017-10-25T22:52:54.312Z,10.50
2017-10-25T22:55:21.225Z,12.43
2017-10-25T22:57:48.151Z,17.17
2017-10-25T23:00:14.361Z,22.23
2017-10-25T23:02:40.550Z,8.67
2017-10-25T23:05:07.485Z,18.17
2017-10-25T23:07:33.952Z,16.63
2017-10-25T23:10:00.148Z,17.53
2017-10-25T23:12:26.324Z,19.20
2017-10-25T23:14:52.860Z,16.27
2017-10-25T23:17:19.028Z,8.83
2017-10-25T23:19:45.253Z,24.70
2017-10-25T23:22:11.434Z,9.30
2017-10-25T23:24:37.613Z,10.27
2017-10-25T23:27:03.839Z,26.50
2017-10-25T23:29:30.017Z,14.67
2017-10-25T23:31:56.203Z,10.53
2017-10-25T23:34:22.676Z,13.13
2017-10-25T23:36:48.850Z,12.20
2017-10-25T23:39:15.025Z,15.33
2017-10-25T23:41:41.241Z,14.03
2017-10-25T23:44:08.165Z,11.50
2017-10-25T23:46:34.343Z,16.03
2017-10-25T23:49:01.476Z,11.17
2017-10-25T23:51:27.643Z,18.70
2017-10-25T23:53:53.897Z,9.17
2017-10-25T23:56:20.827Z,15.07
2017-10-25T23:58:47.020Z,19.73
